createdAt,value
2018-08-04T00:00:22.703Z,9.48
2018-08-04T00:02:52.682Z,9.10
2018-08-04T00:05:22.653Z,10.13
2018-08-04T00:07:52.593Z,9.43
2018-08-04T00:10:22.685Z,10.03
2018-08-04T00:12:52.938Z,9.18
2018-08-04T00:15:23.028Z,10.08
2018-08-04T00:17:53.022Z,9.68
2018-08-04T00:20:23.013Z,9.35
2018-08-04T00:22:52.994Z,9.83
2018-08-04T00:25:22.987Z,10.43
2018-08-04T00:27:52.959Z,10.30
2018-08-04T00:30:22.959Z,10.60
2018-08-04T00:32:52.946Z,10.28
2018-08-04T00:35:22.958Z,10.00
2018-08-04T00:37:52.977Z,10.30
2018-08-04T00:40:22.987Z,10.13
2018-08-04T00:42:52.986Z,9.90
2018-08-04T00:45:22.873Z,10.20
2018-08-04T00:47:52.738Z,10.08
2018-08-04T00:50:22.726Z,10.23
2018-08-04T00:52:52.762Z,10.43
2018-08-04T00:55:22.738Z,9.63
2018-08-04T00:57:52.735Z,9.80
2018-08-04T01:00:22.762Z,9.98
2018-08-04T01:02:52.788Z,9.65
2018-08-04T01:05:22.785Z,10.43
2018-08-04T01:07:53.015Z,10.30
2018-08-04T01:10:23.015Z,10.80
2018-08-04T01:12:52.826Z,10.55
2018-08-04T01:15:22.687Z,10.70
2018-08-04T01:17:52.723Z,10.63
2018-08-04T01:20:22.802Z,10.68
2018-08-04T01:22:52.846Z,11.00
2018-08-04T01:25:22.838Z,10.80
2018-08-04T01:27:53.094Z,11.15
2018-08-04T01:30:23.091Z,10.82
2018-08-04T01:32:53.129Z,10.75
2018-08-04T01:35:23.150Z,10.15
2018-08-04T01:37:53.198Z,10.45
2018-08-04T01:40:23.202Z,10.65
2018-08-04T01:42:53.226Z,11.03
2018-08-04T01:45:23.219Z,10.98
2018-08-04T01:47:53.539Z,10.93
2018-08-04T01:50:23.550Z,11.20
2018-08-04T01:52:53.598Z,10.95
2018-08-04T01:55:23.594Z,11.18
2018-08-04T01:57:53.457Z,10.90
2018-08-04T02:00:23.398Z,11.33
2018-08-04T02:02:53.418Z,11.45
2018-08-04T02:05:23.618Z,11.28
2018-08-04T02:07:53.639Z,10.80
2018-08-04T02:10:23.679Z,11.08
2018-08-04T02:12:53.722Z,11.48
2018-08-04T02:15:23.758Z,11.50
2018-08-04T02:17:53.802Z,11.97
2018-08-04T02:20:23.842Z,12.35
2018-08-04T02:22:53.863Z,11.75
2018-08-04T02:25:23.936Z,11.65
2018-08-04T02:27:53.950Z,11.90
2018-08-04T02:30:23.942Z,12.13
2018-08-04T02:32:53.960Z,11.90
2018-08-04T02:35:23.969Z,12.73
2018-08-04T02:37:53.975Z,12.70
2018-08-04T02:40:23.967Z,12.00
2018-08-04T02:42:54.210Z,12.65
2018-08-04T02:45:24.211Z,12.60
2018-08-04T02:47:54.238Z,13.05
2018-08-04T02:50:24.263Z,12.50
2018-08-04T02:52:54.299Z,12.40
2018-08-04T02:55:24.354Z,12.80
2018-08-04T02:57:54.388Z,12.78
2018-08-04T03:00:24.441Z,13.10
2018-08-04T03:02:54.468Z,12.90
2018-08-04T03:05:24.471Z,12.20
2018-08-04T03:07:54.559Z,13.40
2018-08-04T03:10:24.551Z,12.97
2018-08-04T03:12:54.595Z,13.40
2018-08-04T03:15:24.610Z,13.07
2018-08-04T03:17:54.623Z,13.30
2018-08-04T03:20:24.755Z,13.55
2018-08-04T03:22:54.506Z,12.88
2018-08-04T03:25:24.406Z,13.37
2018-08-04T03:27:54.415Z,13.47
2018-08-04T03:30:24.488Z,12.73
2018-08-04T03:32:54.526Z,12.90
2018-08-04T03:35:24.650Z,13.70
2018-08-04T03:37:54.671Z,12.67
2018-08-04T03:40:24.702Z,13.72
2018-08-04T03:42:54.486Z,13.13
2018-08-04T03:45:24.407Z,13.70
2018-08-04T03:47:54.450Z,13.97
2018-08-04T03:50:24.494Z,13.83
2018-08-04T03:52:54.289Z,13.55
2018-08-04T03:55:24.158Z,14.07
2018-08-04T03:57:56.226Z,14.23
2018-08-04T04:00:25.997Z,13.63
2018-08-04T04:02:55.886Z,13.48
2018-08-04T04:05:25.902Z,13.83
2018-08-04T04:07:55.922Z,13.53
2018-08-04T04:10:25.673Z,12.90
2018-08-04T04:12:55.554Z,13.67
2018-08-04T04:15:25.574Z,12.17
2018-08-04T04:17:55.682Z,13.18
2018-08-04T04:20:25.437Z,13.30
2018-08-04T04:22:55.307Z,13.30
2018-08-04T04:25:25.322Z,13.30
2018-08-04T04:27:55.317Z,12.70
2018-08-04T04:30:25.333Z,13.00
2018-08-04T04:32:55.066Z,13.75
2018-08-04T04:35:24.959Z,12.25
2018-08-04T04:37:55.001Z,12.70
2018-08-04T04:40:25.015Z,12.93
2018-08-04T04:42:55.089Z,13.60
2018-08-04T04:45:25.114Z,13.10
2018-08-04T04:47:55.119Z,12.90
2018-08-04T04:50:25.130Z,12.70
2018-08-04T04:52:55.134Z,13.35
2018-08-04T04:55:25.221Z,13.35
2018-08-04T04:57:55.186Z,12.88
2018-08-04T05:00:25.255Z,12.98
2018-08-04T05:02:55.250Z,12.95
2018-08-04T05:05:25.369Z,13.35
2018-08-04T05:07:55.362Z,13.05
2018-08-04T05:10:25.383Z,12.33
2018-08-04T05:12:55.431Z,12.25
2018-08-04T05:15:25.422Z,13.40
2018-08-04T05:17:55.418Z,12.35
2018-08-04T05:20:25.451Z,11.63
2018-08-04T05:22:55.470Z,11.63
2018-08-04T05:25:25.494Z,11.15
2018-08-04T05:27:55.510Z,11.33
2018-08-04T05:30:25.534Z,10.95
2018-08-04T05:32:55.285Z,11.08
2018-08-04T05:35:25.246Z,10.82
2018-08-04T05:37:55.258Z,10.80
2018-08-04T05:40:25.286Z,10.88
2018-08-04T05:42:55.027Z,10.00
2018-08-04T05:45:24.940Z,10.60
2018-08-04T05:47:54.942Z,11.15
2018-08-04T05:50:24.960Z,9.85
2018-08-04T05:52:55.016Z,11.33
2018-08-04T05:55:25.074Z,10.55
2018-08-04T05:57:55.153Z,10.70
2018-08-04T06:00:25.132Z,10.78
2018-08-04T06:02:55.165Z,10.80
2018-08-04T06:05:25.182Z,11.35
2018-08-04T06:07:55.183Z,11.22
2018-08-04T06:10:25.220Z,11.80
2018-08-04T06:12:54.963Z,12.80
2018-08-04T06:15:24.635Z,12.00
2018-08-04T06:17:54.506Z,13.28
2018-08-04T06:20:24.267Z,13.53
2018-08-04T06:22:54.138Z,12.93
2018-08-04T06:25:24.170Z,12.47
2018-08-04T06:27:54.185Z,12.90
2018-08-04T06:30:24.227Z,11.95
2018-08-04T06:32:54.231Z,12.93
2018-08-04T06:35:24.238Z,12.43
2018-08-04T06:37:54.226Z,12.13
2018-08-04T06:40:24.246Z,12.98
2018-08-04T06:42:54.166Z,12.70
2018-08-04T06:45:24.106Z,13.18
2018-08-04T06:47:54.124Z,12.53
2018-08-04T06:50:24.150Z,12.90
2018-08-04T06:52:54.186Z,12.33
2018-08-04T06:55:24.454Z,12.90
2018-08-04T06:57:54.458Z,12.75
2018-08-04T07:00:24.484Z,12.98
2018-08-04T07:02:54.506Z,12.53
2018-08-04T07:05:24.537Z,12.58
2018-08-04T07:07:54.550Z,12.53
2018-08-04T07:10:24.566Z,13.05
2018-08-04T07:12:54.591Z,13.13
2018-08-04T07:15:24.649Z,12.73
2018-08-04T07:17:54.762Z,12.35
2018-08-04T07:20:24.808Z,11.43
2018-08-04T07:22:54.872Z,10.50
2018-08-04T07:25:24.914Z,10.85
2018-08-04T07:27:54.950Z,10.45
2018-08-04T07:30:25.354Z,13.68
2018-08-04T07:32:55.354Z,10.98
2018-08-04T07:35:26.429Z,11.60
2018-08-04T07:37:56.433Z,11.85
2018-08-04T07:40:26.477Z,11.63
2018-08-04T07:42:56.492Z,11.80
2018-08-04T07:45:26.536Z,11.90
2018-08-04T07:47:56.702Z,11.40
2018-08-04T07:50:26.749Z,11.15
2018-08-04T07:52:56.657Z,11.90
2018-08-04T07:55:26.798Z,12.00
2018-08-04T07:57:56.818Z,12.30
2018-08-04T08:00:26.855Z,11.75
2018-08-04T08:02:56.887Z,11.48
2018-08-04T08:05:26.928Z,12.98
2018-08-04T08:07:56.966Z,14.25
2018-08-04T08:10:27.087Z,12.10
2018-08-04T08:12:57.012Z,10.90
2018-08-04T08:15:27.154Z,12.55
2018-08-04T08:17:57.194Z,11.20
2018-08-04T08:20:27.198Z,11.68
2018-08-04T08:22:57.215Z,10.98
2018-08-04T08:25:27.222Z,11.97
2018-08-04T08:27:57.259Z,12.35
2018-08-04T08:30:27.387Z,11.43
2018-08-04T08:32:57.418Z,11.20
2018-08-04T08:35:34.257Z,11.85
2018-08-04T08:38:09.393Z,11.22
2018-08-04T08:40:40.844Z,12.05
2018-08-04T08:43:12.058Z,11.90
2018-08-04T08:45:43.085Z,11.57
2018-08-04T08:48:14.119Z,11.18
2018-08-04T08:50:45.618Z,11.30
2018-08-04T08:53:16.311Z,11.22
2018-08-04T08:55:47.390Z,10.70
2018-08-04T08:58:17.814Z,11.03
2018-08-04T09:00:48.143Z,10.82
2018-08-04T09:03:18.254Z,11.95
2018-08-04T09:05:49.230Z,11.15
2018-08-04T09:08:20.049Z,11.03
2018-08-04T09:10:50.388Z,11.00
2018-08-04T09:13:20.434Z,10.82
2018-08-04T09:15:50.454Z,10.95
2018-08-04T09:18:20.710Z,10.98
2018-08-04T09:20:50.718Z,12.05
2018-08-04T09:23:20.874Z,10.55
2018-08-04T09:25:51.042Z,11.63
2018-08-04T09:28:21.050Z,10.75
2018-08-04T09:30:51.316Z,12.13
2018-08-04T09:33:21.675Z,12.23
2018-08-04T09:35:51.747Z,10.48
2018-08-04T09:38:21.772Z,13.13
2018-08-04T09:40:51.786Z,13.00
2018-08-04T09:43:21.875Z,12.53
2018-08-04T09:45:51.902Z,12.73
2018-08-04T09:48:21.930Z,13.70
2018-08-04T09:50:52.031Z,12.35
2018-08-04T09:53:22.151Z,13.05
2018-08-04T09:55:52.215Z,13.70
2018-08-04T09:58:22.263Z,12.68
2018-08-04T10:00:57.572Z,13.45
2018-08-04T10:03:27.586Z,13.38
2018-08-04T10:05:57.600Z,14.00
2018-08-04T10:08:27.806Z,15.83
2018-08-04T10:10:57.817Z,18.92
2018-08-04T10:13:27.951Z,18.75
2018-08-04T10:15:57.930Z,18.80
2018-08-04T10:18:28.058Z,15.63
2018-08-04T10:20:58.090Z,13.88
2018-08-04T10:23:28.150Z,13.93
2018-08-04T10:25:58.228Z,16.30
2018-08-04T10:28:28.219Z,18.52
2018-08-04T10:30:58.273Z,17.75
2018-08-04T10:33:28.299Z,15.75
2018-08-04T10:35:58.303Z,18.45
2018-08-04T10:38:28.376Z,14.98
2018-08-04T10:40:58.331Z,14.50
2018-08-04T10:43:28.378Z,14.83
2018-08-04T10:45:58.399Z,12.20
2018-08-04T10:48:28.422Z,12.00
2018-08-04T10:50:58.497Z,12.85
2018-08-04T10:53:28.522Z,13.55
2018-08-04T10:55:58.591Z,13.30
2018-08-04T10:58:28.409Z,13.55
2018-08-04T11:00:58.325Z,11.90
2018-08-04T11:03:28.348Z,10.43
2018-08-04T11:05:58.338Z,11.22
2018-08-04T11:08:28.430Z,10.28
2018-08-04T11:10:58.455Z,12.30
2018-08-04T11:13:28.483Z,14.25
2018-08-04T11:15:58.519Z,15.60
2018-08-04T11:18:28.538Z,18.45
2018-08-04T11:20:58.621Z,11.55
2018-08-04T11:23:28.790Z,9.60
2018-08-04T11:25:59.151Z,9.53
2018-08-04T11:28:29.424Z,11.80
2018-08-04T11:30:59.551Z,10.45
2018-08-04T11:33:29.587Z,9.13
2018-08-04T11:35:59.686Z,9.18
2018-08-04T11:38:29.606Z,9.60
2018-08-04T11:40:59.595Z,9.50
2018-08-04T11:43:29.393Z,8.53
2018-08-04T11:45:59.274Z,10.82
2018-08-04T11:48:29.294Z,9.33
2018-08-04T11:50:59.039Z,9.65
2018-08-04T11:53:29.276Z,9.45
2018-08-04T11:55:59.333Z,8.85
2018-08-04T11:58:29.427Z,8.33
2018-08-04T12:00:59.450Z,9.30
2018-08-04T12:03:29.474Z,9.23
2018-08-04T12:05:59.486Z,7.92
2018-08-04T12:08:29.499Z,8.05
2018-08-04T12:10:59.739Z,8.15
2018-08-04T12:13:29.795Z,8.78
2018-08-04T12:15:59.890Z,8.70
2018-08-04T12:18:29.684Z,8.45
2018-08-04T12:20:59.570Z,8.58
2018-08-04T12:23:29.799Z,9.45
2018-08-04T12:25:59.882Z,9.55
2018-08-04T12:28:29.952Z,10.32
2018-08-04T12:31:00.007Z,9.65
2018-08-04T12:33:30.070Z,9.50
2018-08-04T12:36:00.207Z,9.85
2018-08-04T12:38:30.399Z,10.38
2018-08-04T12:41:00.528Z,9.90
2018-08-04T12:43:30.615Z,8.98
2018-08-04T12:46:00.830Z,26.05
2018-08-04T12:48:34.061Z,13.00
2018-08-04T12:51:10.439Z,10.48
2018-08-04T12:53:42.427Z,8.70
2018-08-04T12:56:13.934Z,7.97
2018-08-04T12:58:46.001Z,8.15
2018-08-04T13:01:17.144Z,8.08
2018-08-04T13:03:49.456Z,8.00
2018-08-04T13:06:19.963Z,8.40
2018-08-04T13:08:50.029Z,7.75
2018-08-04T13:11:20.422Z,8.78
2018-08-04T13:13:50.738Z,7.90
2018-08-04T13:16:21.037Z,8.33
2018-08-04T13:18:51.178Z,8.05
2018-08-04T13:21:21.334Z,7.60
2018-08-04T13:23:51.470Z,7.28
2018-08-04T13:26:21.491Z,8.35
2018-08-04T13:28:51.558Z,7.45
2018-08-04T13:31:21.621Z,7.85
2018-08-04T13:33:51.754Z,8.58
2018-08-04T13:36:21.798Z,8.53
2018-08-04T13:38:53.222Z,9.38
2018-08-04T13:41:23.483Z,9.98
2018-08-04T13:43:53.562Z,10.25
2018-08-04T13:46:23.594Z,10.00
2018-08-04T13:48:53.722Z,9.90
2018-08-04T13:51:23.734Z,10.15
2018-08-04T13:53:53.767Z,9.90
2018-08-04T13:56:23.811Z,9.48
2018-08-04T13:58:53.834Z,10.10
2018-08-04T14:01:23.864Z,9.88
2018-08-04T14:03:53.893Z,9.90
2018-08-04T14:06:29.234Z,9.55
2018-08-04T14:08:59.469Z,9.60
2018-08-04T14:11:29.466Z,9.43
2018-08-04T14:13:59.492Z,9.70
2018-08-04T14:16:29.488Z,9.88
2018-08-04T14:18:59.522Z,8.85
2018-08-04T14:21:30.062Z,9.25
2018-08-04T14:24:09.443Z,8.93
2018-08-04T14:26:43.949Z,9.33
2018-08-04T14:29:15.112Z,8.83
2018-08-04T14:31:46.391Z,9.05
2018-08-04T14:34:17.853Z,9.13
2018-08-04T14:36:48.518Z,8.85
2018-08-04T14:39:19.566Z,8.95
2018-08-04T14:41:49.552Z,9.10
2018-08-04T14:44:20.014Z,9.23
2018-08-04T14:46:50.275Z,9.60
2018-08-04T14:49:20.474Z,8.80
2018-08-04T14:51:50.722Z,8.40
2018-08-04T14:54:20.690Z,8.38
2018-08-04T14:56:50.507Z,9.00
2018-08-04T14:59:20.414Z,8.85
2018-08-04T15:01:50.551Z,8.33
2018-08-04T15:04:20.623Z,8.10
2018-08-04T15:06:50.744Z,8.10
2018-08-04T15:09:20.742Z,8.13
2018-08-04T15:11:50.757Z,8.40
2018-08-04T15:14:20.814Z,7.58
2018-08-04T15:16:50.871Z,7.33
2018-08-04T15:19:20.947Z,7.50
2018-08-04T15:21:51.048Z,7.60
2018-08-04T15:24:21.052Z,7.25
2018-08-04T15:26:51.184Z,7.28
2018-08-04T15:29:21.137Z,6.80
2018-08-04T15:31:51.234Z,7.55
2018-08-04T15:34:21.278Z,7.83
2018-08-04T15:36:51.310Z,7.08
2018-08-04T15:39:21.301Z,7.03
2018-08-04T15:41:51.334Z,7.15
2018-08-04T15:44:21.379Z,7.30
2018-08-04T15:46:51.413Z,7.00
2018-08-04T15:49:21.499Z,7.53
2018-08-04T15:51:51.646Z,7.17
2018-08-04T15:54:21.690Z,7.22
2018-08-04T15:56:51.784Z,7.33
2018-08-04T15:59:21.806Z,6.85
2018-08-04T16:01:51.881Z,6.80
2018-08-04T16:04:21.895Z,7.00
2018-08-04T16:06:51.938Z,6.87
2018-08-04T16:09:21.930Z,6.70
2018-08-04T16:11:51.975Z,7.95
2018-08-04T16:14:22.009Z,7.62
2018-08-04T16:16:52.072Z,7.90
2018-08-04T16:19:22.026Z,7.72
2018-08-04T16:21:52.094Z,7.72
2018-08-04T16:24:22.099Z,8.05
2018-08-04T16:26:52.127Z,8.08
2018-08-04T16:29:22.165Z,7.80
2018-08-04T16:31:52.211Z,8.08
2018-08-04T16:34:22.252Z,7.80
2018-08-04T16:36:52.314Z,7.75
2018-08-04T16:39:22.319Z,7.70
2018-08-04T16:41:52.420Z,7.55
2018-08-04T16:44:22.389Z,7.03
2018-08-04T16:46:52.407Z,7.75
2018-08-04T16:49:22.417Z,7.47
2018-08-04T16:51:52.407Z,7.28
2018-08-04T16:54:22.406Z,7.20
2018-08-04T16:56:52.402Z,6.90
2018-08-04T16:59:22.436Z,7.92
2018-08-04T17:01:52.418Z,7.33
2018-08-04T17:04:22.434Z,6.80
2018-08-04T17:06:52.436Z,6.85
2018-08-04T17:09:22.434Z,7.53
2018-08-04T17:11:52.662Z,7.33
2018-08-04T17:14:22.683Z,6.95
2018-08-04T17:16:52.698Z,7.35
2018-08-04T17:19:22.722Z,7.30
2018-08-04T17:21:52.631Z,7.35
2018-08-04T17:24:22.550Z,6.83
2018-08-04T17:26:52.878Z,7.22
2018-08-04T17:29:23.053Z,7.00
2018-08-04T17:31:53.263Z,7.22
2018-08-04T17:34:23.258Z,7.17
2018-08-04T17:36:53.472Z,7.15
2018-08-04T17:39:23.482Z,7.40
2018-08-04T17:41:53.634Z,6.62
2018-08-04T17:44:23.709Z,6.78
2018-08-04T17:46:53.673Z,6.85
2018-08-04T17:49:23.685Z,7.87
2018-08-04T17:51:53.766Z,7.30
2018-08-04T17:54:23.870Z,7.55
2018-08-04T17:56:53.914Z,7.28
2018-08-04T17:59:23.906Z,6.90
2018-08-04T18:01:53.948Z,7.53
2018-08-04T18:04:24.003Z,7.42
2018-08-04T18:06:54.136Z,7.22
2018-08-04T18:09:24.411Z,7.10
2018-08-04T18:11:54.419Z,6.78
2018-08-04T18:14:24.426Z,6.92
2018-08-04T18:16:54.450Z,6.75
2018-08-04T18:19:24.479Z,6.92
2018-08-04T18:21:54.516Z,6.90
2018-08-04T18:24:24.726Z,6.67
2018-08-04T18:26:54.742Z,7.00
2018-08-04T18:29:24.763Z,6.95
2018-08-04T18:31:54.781Z,8.20
2018-08-04T18:34:24.863Z,15.05
2018-08-04T18:36:54.890Z,15.90
2018-08-04T18:39:24.934Z,7.85
2018-08-04T18:41:54.979Z,7.95
2018-08-04T18:44:25.040Z,7.65
2018-08-04T18:46:55.379Z,7.45
2018-08-04T18:49:25.426Z,7.33
2018-08-04T18:51:55.466Z,7.53
2018-08-04T18:54:25.516Z,7.03
2018-08-04T18:56:55.259Z,7.00
2018-08-04T18:59:25.154Z,7.58
2018-08-04T19:01:55.271Z,7.83
2018-08-04T19:04:25.295Z,7.50
2018-08-04T19:06:55.307Z,7.33
2018-08-04T19:09:25.326Z,7.85
2018-08-04T19:11:55.142Z,7.47
2018-08-04T19:14:25.074Z,7.78
2018-08-04T19:16:55.081Z,7.47
2018-08-04T19:19:25.102Z,7.30
2018-08-04T19:21:55.415Z,7.60
2018-08-04T19:24:25.450Z,6.95
2018-08-04T19:26:55.251Z,6.87
2018-08-04T19:29:25.201Z,6.53
2018-08-04T19:31:55.333Z,6.10
2018-08-04T19:34:25.442Z,5.90
2018-08-04T19:36:55.458Z,10.10
2018-08-04T19:39:25.495Z,8.78
2018-08-04T19:41:55.695Z,6.62
2018-08-04T19:44:25.710Z,5.17
2018-08-04T19:46:55.751Z,5.10
2018-08-04T19:49:25.894Z,5.30
2018-08-04T19:51:56.003Z,5.05
2018-08-04T19:54:26.026Z,5.10
2018-08-04T19:56:56.554Z,4.87
2018-08-04T19:59:26.571Z,4.90
2018-08-04T20:01:56.826Z,5.20
2018-08-04T20:04:26.862Z,4.65
2018-08-04T20:06:56.871Z,4.78
2018-08-04T20:09:26.884Z,4.65
2018-08-04T20:11:56.990Z,4.35
2018-08-04T20:14:27.009Z,4.30
2018-08-04T20:16:57.055Z,4.47
2018-08-04T20:19:27.085Z,4.22
2018-08-04T20:21:57.176Z,4.35
2018-08-04T20:24:27.197Z,4.00
2018-08-04T20:26:57.215Z,3.92
2018-08-04T20:29:27.228Z,3.83
2018-08-04T20:31:57.308Z,3.77
2018-08-04T20:34:27.325Z,4.03
2018-08-04T20:36:57.359Z,3.60
2018-08-04T20:39:27.398Z,3.92
2018-08-04T20:41:57.442Z,3.67
2018-08-04T20:44:27.458Z,3.47
2018-08-04T20:46:57.456Z,3.47
2018-08-04T20:49:27.478Z,3.50
2018-08-04T20:51:57.713Z,3.30
2018-08-04T20:54:27.746Z,3.35
2018-08-04T20:56:57.754Z,3.30
2018-08-04T20:59:27.785Z,3.10
2018-08-04T21:02:06.366Z,3.58
2018-08-04T21:04:40.607Z,3.00
2018-08-04T21:07:11.949Z,3.20
2018-08-04T21:09:42.782Z,3.00
2018-08-04T21:12:14.920Z,3.17
2018-08-04T21:14:46.200Z,3.20
2018-08-04T21:17:18.491Z,2.90
2018-08-04T21:19:49.419Z,2.92
2018-08-04T21:22:19.760Z,3.17
2018-08-04T21:24:50.326Z,3.00
2018-08-04T21:27:20.442Z,2.80
2018-08-04T21:29:51.070Z,3.05
2018-08-04T21:32:21.062Z,3.12
2018-08-04T21:34:51.223Z,2.95
2018-08-04T21:37:21.266Z,2.85
2018-08-04T21:39:51.369Z,3.10
2018-08-04T21:42:21.370Z,3.20
2018-08-04T21:44:51.435Z,3.10
2018-08-04T21:47:21.426Z,3.10
2018-08-04T21:49:51.590Z,3.20
2018-08-04T21:52:21.620Z,3.27
2018-08-04T21:54:51.719Z,3.67
2018-08-04T21:57:21.644Z,3.42
2018-08-04T21:59:51.702Z,3.37
2018-08-04T22:02:21.701Z,3.25
2018-08-04T22:04:51.806Z,3.58
2018-08-04T22:07:43.366Z,2.92
2018-08-04T22:10:15.435Z,3.20
2018-08-04T22:12:46.341Z,3.08
2018-08-04T22:15:18.490Z,3.50
2018-08-04T22:17:50.179Z,3.30
2018-08-04T22:20:21.602Z,3.40
2018-08-04T22:22:51.727Z,3.05
2018-08-04T22:25:23.014Z,3.08
2018-08-04T22:27:53.242Z,3.10
2018-08-04T22:30:23.717Z,3.10
2018-08-04T22:32:53.839Z,3.20
2018-08-04T22:35:24.007Z,3.17
2018-08-04T22:37:53.842Z,3.20
2018-08-04T22:40:23.762Z,3.33
2018-08-04T22:42:53.513Z,2.75
2018-08-04T22:45:58.140Z,3.10
2018-08-04T22:48:28.186Z,2.70
2018-08-04T22:50:58.246Z,2.80
2018-08-04T22:53:28.270Z,2.70
2018-08-04T22:55:58.418Z,2.70
2018-08-04T22:58:28.402Z,2.87
2018-08-04T23:00:58.554Z,2.92
2018-08-04T23:03:28.564Z,2.92
2018-08-04T23:05:58.882Z,2.62
2018-08-04T23:08:28.865Z,2.95
2018-08-04T23:10:58.919Z,2.50
2018-08-04T23:13:28.938Z,2.87
2018-08-04T23:15:59.134Z,2.50
2018-08-04T23:18:29.132Z,2.72
2018-08-04T23:20:59.162Z,2.90
2018-08-04T23:23:29.150Z,2.80
2018-08-04T23:25:59.252Z,2.60
2018-08-04T23:28:29.224Z,2.72
2018-08-04T23:30:59.237Z,2.80
2018-08-04T23:33:29.234Z,2.83
2018-08-04T23:35:59.324Z,2.98
2018-08-04T23:38:29.264Z,3.05
2018-08-04T23:40:59.322Z,2.60
2018-08-04T23:43:29.067Z,2.70
2018-08-04T23:45:58.675Z,2.70
2018-08-04T23:48:28.576Z,2.80
2018-08-04T23:50:58.587Z,2.70
2018-08-04T23:53:28.601Z,2.70
2018-08-04T23:55:58.598Z,2.70
2018-08-04T23:58:28.609Z,2.60
